Flight Track Log - Related Links

Times and Time Zones

All times are in EDT time to prevent confusion due to time zone crossing. See the N708RK flight status page for this flight to view local times or setup timezone preferences in your user account.

Time Position Orientation Groundspeed Altitude Reporting Facility
EDT Latitude Longitude Course Direction KTS MPH feet Rate Location/Type
Sat 11:17:41 AM 39.5542 -88.2533 346° North 192 221 15,000  Level Kansas City Center
Sat 11:18:42 AM 39.5992 -88.2653 348° North 192 221 5,700 -3,669 Descending Kansas City Center
Sat 11:19:42 AM 39.6519 -88.2853 344° North 190 219 7,600 1,790 Climbing Kansas City Center
Sat 11:20:46 AM 39.7047 -88.3031 345° North 193 222 9,400 1,680 Climbing Kansas City Center
Sat 11:21:47 AM 39.7572 -88.3231 344° North 196 226 11,100 1,835 Climbing Kansas City Center
Sat 11:22:00 AM 39.9145 -88.4215 346° North  Level FlightAware Approximate
Sat 11:22:47 AM 39.8242 -88.3478 344° North 203 234 13,100  Level Kansas City Center
Sat 11:23:00 AM 39.9792 -88.4430 346° North  Level FlightAware Approximate
Sat 11:23:49 AM 39.8811 -88.3700 343° North 207 238 14,000  Level Kansas City Center
Sat 11:24:53 AM 39.9544 -88.3994 343° North 247 284 14,000  Level Kansas City Center
Sat 11:25:53 AM 40.0325 -88.4289 344° North 275 316 14,000  Level Kansas City Center
Sat 11:26:56 AM 40.1108 -88.4564 345° North 285 328 14,000  Level Kansas City Center
Sat 11:27:57 AM 40.1878 -88.4858 344° North 289 333 14,000  Level Kansas City Center
Sat 11:29:02 AM 40.2781 -88.5222 343° North 288 331 14,000  Level Chicago Center
Sat 11:30:04 AM 40.3558 -88.5531 343° North 291 335 14,000  Level Chicago Center
Sat 11:31:06 AM 40.4333 -88.5825 344° North 291 335 14,000  Level Chicago Center
Sat 11:32:07 AM 40.5192 -88.6164 343° North 292 336 14,000  Level Chicago Center
Sat 11:33:09 AM 40.5953 -88.6456 344° North 288 331 14,000  Level Chicago Center
Sat 11:34:11 AM 40.6725 -88.6764 343° North 290 334 14,000  Level Chicago Center
Sat 11:35:13 AM 40.7500 -88.7067 344° North 292 336 14,000 -242 Level Chicago Center
Sat 11:36:15 AM 40.8286 -88.7328 346° North 293 337 13,500 -829 Descending Chicago Center
Sat 11:37:16 AM 40.9294 -88.7172 North 304 350 12,300 -1,122 Descending Chicago Center
Sat 11:38:18 AM 41.0092 -88.7033 North 295 339 11,200 -968 Descending Chicago Center
Sat 11:39:20 AM 41.0881 -88.6928 North 288 331 10,300 -927 Descending Chicago Center
Sat 11:40:21 AM 41.1667 -88.6811 North 285 328 9,300 -1,297 Descending Chicago Center
Sat 11:42:25 AM 41.3197 -88.6583 North 276 318 6,300 -1,387 Descending Chicago Center
Sat 11:43:27 AM 41.4025 -88.6461 North 257 296 5,000 -629 Descending Chicago Center
Sat 11:44:29 AM 41.4697 -88.6322 North 247 284 5,000  Level Chicago Center
Sat 11:45:31 AM 41.5408 -88.6236 North 252 290 5,000  Level Chicago Center
Sat 11:46:33 AM 41.6119 -88.6122 North 256 295 5,000 -97 Level Chicago Center
Sat 11:47:35 AM 41.6592 -88.5453 47° Northeast 246 283 4,800 -484 Descending Chicago Center
Sat 11:48:37 AM 41.6917 -88.4653 61° Northeast 245 282 4,000 -871 Descending Chicago Center
Sat 11:49:39 AM 41.7428 -88.4100 39° Northeast 237 273 3,000 -532 Descending Chicago Center
Sat 11:50:41 AM 41.8006 -88.3533 36° Northeast 226 260 2,900 -390 Descending Chicago Center
Sat 11:51:42 AM 41.8306 -88.2992 53° Northeast 197 227 2,200 -732 Descending Chicago Center
Sat 11:52:44 AM 41.8606 -88.2628 42° Northeast 167 192 1,400 -581 Descending Chicago Center
Sat 11:53:46 AM 41.9014 -88.2536 North 151 174 1,000 -387 Descending Chicago Center

Login

Don't have an account? Register now (free) for customized features, flight alerts, and more!